Terminal Aerodrome Forecast
Issued by NWS

Home | Current Version | Previous Version | Text Only | Print | Product List | Glossary On
Versions: 1 2 3 4 5 6 7 8 9 10 11 12 13 14 15 16 17 18 19 20 21 22 23 24
463
FTUS46 KLOX 202359
TAFPRB
TAF
KPRB 202359Z 2100/2124 22015G25KT P6SM -SHRA SCT025 BKN040
      TEMPO 2101/2103 BKN012 OVC025
     FM210400 25010KT P6SM -SHRA BKN025 BKN050
     FM211100 VRB04KT 4SM BR SCT012 BKN025
     FM211600 23008KT P6SM BKN025 BKN050=

USA.gov is the U.S. government's official web portal to all federal, state and local government web resources and services.